Time;durP1;ratioP1;P1;durP2;ratioP2;P2;SDS_P1;SDS_P2;PMS_P1;PMS_P2;Temp;Humidity;BMP_temperature;BMP_pressure;BME280_temperature;BME280_humidity;BME280_pressure;Samples;Min_cycle;Max_cycle;Signal;HPM_P1;HPM_P2
2023/01/30 00:02:13;;;;;;;21.13;11.77;;;6.90;84.20;;;;;;5058315;28;20061;-67
2023/01/30 00:04:38;;;;;;;18.50;11.52;;;7.00;84.30;;;;;;5049976;28;20054;-66
2023/01/30 00:07:04;;;;;;;17.50;10.88;;;7.00;84.20;;;;;;5048676;28;20031;-67
2023/01/30 00:09:30;;;;;;;22.67;12.70;;;7.00;84.20;;;;;;5049361;28;20500;-67
2023/01/30 00:11:55;;;;;;;26.88;13.02;;;7.00;84.00;;;;;;5049375;28;20033;-68
2023/01/30 00:14:21;;;;;;;20.80;12.35;;;7.10;84.20;;;;;;5060871;28;20367;-67
2023/01/30 00:16:47;;;;;;;30.00;11.35;;;7.10;84.40;;;;;;5054340;28;20028;-67
2023/01/30 00:19:12;;;;;;;21.30;13.07;;;7.10;84.30;;;;;;5055352;28;20064;-67
2023/01/30 00:21:38;;;;;;;19.25;11.02;;;7.10;84.40;;;;;;5047803;28;20048;-68
2023/01/30 00:24:04;;;;;;;22.58;12.95;;;7.10;84.50;;;;;;5047938;28;20056;-68
2023/01/30 00:26:30;;;;;;;19.05;12.10;;;7.10;84.80;;;;;;5054820;28;20056;-66
2023/01/30 00:28:55;;;;;;;19.63;11.75;;;7.00;85.50;;;;;;5049498;28;20029;-67
2023/01/30 00:31:21;;;;;;;19.02;11.63;;;7.10;85.00;;;;;;5047964;28;20037;-67
2023/01/30 00:33:46;;;;;;;22.63;12.25;;;7.10;85.00;;;;;;5057291;28;20071;-68
2023/01/30 00:36:12;;;;;;;21.13;11.75;;;7.10;85.00;;;;;;5052386;28;20032;-67
2023/01/30 00:38:38;;;;;;;20.77;11.48;;;7.10;84.90;;;;;;5054976;28;20094;-67
2023/01/30 00:41:03;;;;;;;18.00;11.77;;;7.10;84.80;;;;;;5048926;28;20033;-67
2023/01/30 00:49:12;;;;;;;17.52;10.63;;;7.10;85.00;;;;;;5036145;28;20036;-67
2023/01/30 00:51:38;;;;;;;21.30;13.02;;;7.10;85.30;;;;;;5048417;28;20037;-67
2023/01/30 00:54:03;;;;;;;19.48;11.82;;;7.10;85.50;;;;;;5047488;28;20031;-63
2023/01/30 00:56:29;;;;;;;18.48;11.25;;;7.10;85.50;;;;;;5054855;28;20471;-67
2023/01/30 00:58:55;;;;;;;18.88;10.95;;;7.10;85.60;;;;;;5049041;28;20416;-63
2023/01/30 01:01:20;;;;;;;21.73;12.43;;;7.20;85.70;;;;;;5052578;28;20039;-63
2023/01/30 01:03:46;;;;;;;16.33;10.80;;;7.20;85.90;;;;;;5053719;28;20031;-63
2023/01/30 01:06:12;;;;;;;19.10;11.73;;;7.20;85.80;;;;;;5055615;28;20113;-68
2023/01/30 01:08:37;;;;;;;21.02;13.30;;;7.20;85.90;;;;;;5075628;28;20115;-67
2023/01/30 01:11:03;;;;;;;19.67;11.75;;;7.20;86.00;;;;;;5055818;28;20110;-63
2023/01/30 01:13:29;;;;;;;19.25;12.30;;;7.30;86.10;;;;;;5047811;28;20029;-63
2023/01/30 01:15:54;;;;;;;22.67;11.48;;;7.30;86.10;;;;;;5055467;28;20033;-63
2023/01/30 01:18:20;;;;;;;19.17;11.52;;;7.30;86.10;;;;;;5047377;28;20432;-64
2023/01/30 01:20:46;;;;;;;22.23;13.52;;;7.30;86.20;;;;;;5048894;28;20029;-63
2023/01/30 01:23:12;;;;;;;16.92;11.32;;;7.40;86.40;;;;;;5045953;28;20547;-62
2023/01/30 01:25:38;;;;;;;22.23;13.60;;;7.40;86.20;;;;;;5050018;28;20537;-63
2023/01/30 01:28:03;;;;;;;20.08;12.35;;;7.40;86.30;;;;;;5047705;28;20029;-68
2023/01/30 01:30:29;;;;;;;17.95;11.38;;;7.40;86.40;;;;;;5048615;28;20460;-67
2023/01/30 01:32:55;;;;;;;18.52;12.05;;;7.40;86.50;;;;;;5048089;28;20067;-67
2023/01/30 01:35:21;;;;;;;19.55;10.52;;;7.40;86.50;;;;;;5048648;28;20040;-67
2023/01/30 01:37:47;;;;;;;28.67;12.15;;;7.40;86.50;;;;;;5052203;28;20032;-63
2023/01/30 01:43:13;;;;;;;21.85;12.05;;;7.50;86.60;;;;;;5049191;28;20396;-67
2023/01/30 01:45:39;;;;;;;21.77;12.27;;;7.50;86.50;;;;;;5054029;28;20116;-67
2023/01/30 01:48:11;;;;;;;17.70;11.48;;;7.50;86.70;;;;;;5048369;28;20147;-67
2023/01/30 01:50:46;;;;;;;22.15;12.63;;;7.50;87.00;;;;;;5047900;28;20438;-67
2023/01/30 01:53:15;;;;;;;18.70;12.07;;;7.50;87.20;;;;;;5056755;28;20110;-63
2023/01/30 01:55:43;;;;;;;19.38;10.98;;;7.50;87.20;;;;;;5054710;28;20025;-63
2023/01/30 01:58:42;;;;;;;19.98;12.15;;;7.50;87.10;;;;;;5042276;28;20055;-63
2023/01/30 02:01:07;;;;;;;17.58;11.02;;;7.60;86.90;;;;;;5040635;28;20029;-63
2023/01/30 02:03:40;;;;;;;17.33;10.40;;;7.60;87.10;;;;;;5055581;28;20025;-63
2023/01/30 02:06:07;;;;;;;17.55;11.02;;;7.50;87.20;;;;;;5051033;28;20023;-64
2023/01/30 02:08:50;;;;;;;18.38;10.32;;;7.60;87.40;;;;;;5051175;28;20021;-63
2023/01/30 02:11:24;;;;;;;17.10;10.52;;;7.50;87.50;;;;;;5052310;28;20060;-62
2023/01/30 02:13:50;;;;;;;15.30;10.85;;;7.50;87.70;;;;;;5050553;28;20037;-62
2023/01/30 02:16:16;;;;;;;21.95;12.13;;;7.60;87.70;;;;;;5058145;28;20020;-63
2023/01/30 02:18:44;;;;;;;15.95;10.73;;;7.60;87.70;;;;;;5051741;28;20071;-64
2023/01/30 02:21:26;;;;;;;19.15;10.40;;;7.60;87.80;;;;;;5055164;28;20028;-63
2023/01/30 02:24:29;;;;;;;15.75;10.02;;;7.60;87.70;;;;;;5051183;28;20040;-64
2023/01/30 02:26:55;;;;;;;;;;;7.70;87.90;;;;;;5048681;28;20032;-63
2023/01/30 02:30:02;;;;;;;20.95;10.02;;;7.60;88.10;;;;;;5051196;28;19908;-67
2023/01/30 02:32:35;;;;;;;15.68;9.75;;;7.60;87.90;;;;;;5032087;28;20120;-67
2023/01/30 02:35:25;;;;;;;16.67;9.10;;;7.60;88.10;;;;;;5070154;28;20036;-67
2023/01/30 02:38:00;;;;;;;19.20;8.98;;;7.70;88.20;;;;;;5049809;28;20132;-63
2023/01/30 02:40:31;;;;;;;16.55;9.80;;;7.70;88.40;;;;;;5056868;28;20213;-63
2023/01/30 02:43:18;;;;;;;15.55;9.27;;;7.70;88.60;;;;;;5054693;28;20411;-66
2023/01/30 02:45:55;;;;;;;14.75;8.48;;;7.70;88.60;;;;;;5052155;28;20040;-67
2023/01/30 02:48:34;;;;;;;15.70;8.02;;;7.70;89.00;;;;;;5059293;28;20154;-67
2023/01/30 02:51:08;;;;;;;12.38;7.80;;;7.80;89.10;;;;;;5039947;28;20131;-67
2023/01/30 02:53:35;;;;;;;14.52;7.07;;;7.80;89.20;;;;;;5059526;28;20099;-63
2023/01/30 02:56:01;;;;;;;11.35;7.43;;;7.80;89.40;;;;;;5059373;28;20522;-62
2023/01/30 02:58:31;;;;;;;8.55;5.68;;;7.80;89.30;;;;;;5053080;28;20076;-62
2023/01/30 03:01:54;;;;;;;6.82;4.82;;;7.90;89.30;;;;;;5057637;28;20028;-62
2023/01/30 03:04:35;;;;;;;10.63;5.45;;;8.00;89.20;;;;;;5019688;28;20537;-65
2023/01/30 03:07:26;;;;;;;5.95;4.03;;;8.00;89.30;;;;;;5002806;28;20113;-67
2023/01/30 03:10:11;;;;;;;7.10;4.00;;;8.00;89.20;;;;;;5043956;28;20029;-63
2023/01/30 03:13:19;;;;;;;5.22;3.75;;;8.10;89.10;;;;;;5043841;28;20036;-63
2023/01/30 03:15:51;;;;;;;6.50;4.07;;;8.10;89.40;;;;;;5037383;28;20029;-64
2023/01/30 03:18:19;;;;;;;6.93;4.20;;;8.20;89.40;;;;;;5048774;28;20520;-62
2023/01/30 03:20:45;;;;;;;7.10;4.45;;;8.20;90.00;;;;;;5049939;28;20021;-65
2023/01/30 03:23:11;;;;;;;3.72;3.22;;;8.20;89.70;;;;;;5050053;28;20021;-63
2023/01/30 03:25:39;;;;;;;6.15;3.95;;;8.20;89.70;;;;;;5053387;28;20036;-67
2023/01/30 03:28:07;;;;;;;6.30;3.83;;;8.20;90.00;;;;;;5050591;28;20384;-67
2023/01/30 03:30:33;;;;;;;5.22;4.05;;;8.20;90.00;;;;;;5053569;28;20037;-67
2023/01/30 03:32:58;;;;;;;4.10;3.03;;;8.20;90.00;;;;;;5062092;28;20120;-67
2023/01/30 03:35:24;;;;;;;8.65;3.80;;;8.20;90.00;;;;;;5053010;28;20033;-67
2023/01/30 03:37:50;;;;;;;5.30;3.35;;;8.20;90.00;;;;;;5049553;28;20086;-67
2023/01/30 03:40:16;;;;;;;5.45;3.30;;;8.30;90.00;;;;;;5050409;28;20032;-66
2023/01/30 03:42:42;;;;;;;6.60;3.33;;;8.30;90.00;;;;;;5049569;28;20508;-66
2023/01/30 03:45:09;;;;;;;13.65;3.70;;;8.30;90.00;;;;;;5049795;28;20048;-65
2023/01/30 03:47:35;;;;;;;5.45;2.88;;;8.30;89.90;;;;;;5049847;28;20050;-62
2023/01/30 03:50:00;;;;;;;4.32;2.67;;;8.30;90.00;;;;;;5080298;28;20107;-62
2023/01/30 03:52:26;;;;;;;3.63;2.67;;;8.40;90.10;;;;;;5064189;28;20143;-64
2023/01/30 03:54:52;;;;;;;6.53;2.95;;;8.40;90.10;;;;;;5056437;28;20030;-63
2023/01/30 03:57:17;;;;;;;4.82;3.22;;;8.40;90.10;;;;;;5059289;28;20029;-63
2023/01/30 03:59:43;;;;;;;6.10;3.45;;;8.40;90.10;;;;;;5049575;28;20511;-63
2023/01/30 04:02:09;;;;;;;5.82;3.10;;;8.40;90.10;;;;;;5057706;28;20100;-67
2023/01/30 04:04:35;;;;;;;4.13;2.72;;;8.40;90.10;;;;;;5049179;28;20438;-66
2023/01/30 04:07:01;;;;;;;7.55;3.40;;;8.50;90.00;;;;;;5070046;28;20017;-66
2023/01/30 04:09:26;;;;;;;3.65;2.88;;;8.50;90.10;;;;;;5049681;28;20076;-62
2023/01/30 04:11:52;;;;;;;6.22;3.30;;;8.50;90.10;;;;;;5048782;28;20399;-66
2023/01/30 04:14:18;;;;;;;10.45;3.63;;;8.50;90.10;;;;;;5051577;28;20106;-66
2023/01/30 04:16:44;;;;;;;6.78;3.45;;;8.50;90.10;;;;;;5045925;28;20480;-66
2023/01/30 04:19:10;;;;;;;4.38;2.97;;;8.50;90.10;;;;;;5045902;28;20029;-66
2023/01/30 04:21:36;;;;;;;5.25;3.25;;;8.50;90.10;;;;;;5073789;28;20448;-66
2023/01/30 04:24:02;;;;;;;6.13;3.03;;;8.50;90.10;;;;;;5049106;28;20075;-65
2023/01/30 04:26:27;;;;;;;6.47;3.25;;;8.50;90.10;;;;;;5046370;28;20059;-67
2023/01/30 04:28:53;;;;;;;4.05;2.75;;;8.60;90.10;;;;;;5047769;28;20021;-68
2023/01/30 04:31:19;;;;;;;7.43;2.97;;;8.60;90.10;;;;;;5048285;28;20041;-67
2023/01/30 04:33:44;;;;;;;4.00;2.70;;;8.60;90.10;;;;;;5049555;28;20124;-66
2023/01/30 04:36:11;;;;;;;5.30;3.17;;;8.60;90.10;;;;;;5049585;28;20087;-66
2023/01/30 04:38:37;;;;;;;3.40;2.78;;;8.60;90.10;;;;;;5052321;28;20094;-67
2023/01/30 04:41:03;;;;;;;5.57;2.97;;;8.60;90.20;;;;;;5046381;28;20025;-66
2023/01/30 04:43:30;;;;;;;6.28;3.45;;;8.60;90.00;;;;;;5049430;28;20029;-62
2023/01/30 04:45:56;;;;;;;4.70;2.92;;;8.60;90.00;;;;;;5048196;28;20500;-63
2023/01/30 04:48:23;;;;;;;7.72;3.30;;;8.70;89.90;;;;;;5048479;28;20029;-63
2023/01/30 04:50:51;;;;;;;3.97;3.10;;;8.70;89.80;;;;;;5046826;28;20111;-63
2023/01/30 04:53:17;;;;;;;4.90;3.17;;;8.70;89.80;;;;;;5054833;28;20452;-63
2023/01/30 04:55:42;;;;;;;3.90;2.92;;;8.70;89.90;;;;;;5051112;28;20031;-63
2023/01/30 04:58:08;;;;;;;12.40;3.28;;;8.70;89.80;;;;;;5049272;28;20041;-66
2023/01/30 05:00:34;;;;;;;10.25;2.50;;;8.70;89.70;;;;;;5049802;28;20044;-63
2023/01/30 05:03:00;;;;;;;10.75;3.22;;;8.70;89.70;;;;;;5047909;28;20021;-67
2023/01/30 05:05:26;;;;;;;7.18;2.83;;;8.80;89.70;;;;;;5036277;28;20025;-63
2023/01/30 05:07:52;;;;;;;12.60;2.88;;;8.80;89.70;;;;;;5047124;28;20116;-63
2023/01/30 05:10:18;;;;;;;5.38;2.20;;;8.70;89.70;;;;;;5040488;28;20445;-63
2023/01/30 05:12:44;;;;;;;3.50;2.25;;;8.80;89.60;;;;;;5045909;28;20068;-67
2023/01/30 05:15:10;;;;;;;4.60;2.53;;;8.80;89.50;;;;;;5047890;28;20469;-66
2023/01/30 05:17:36;;;;;;;12.35;2.78;;;8.80;89.50;;;;;;5050716;28;20374;-67
2023/01/30 05:20:04;;;;;;;6.38;2.72;;;8.80;89.60;;;;;;5047669;28;20021;-66
2023/01/30 05:22:30;;;;;;;5.20;2.25;;;8.80;89.50;;;;;;5047224;28;20078;-67
2023/01/30 05:24:55;;;;;;;11.32;2.80;;;8.80;89.40;;;;;;5048508;28;20013;-67
2023/01/30 05:27:21;;;;;;;6.30;2.47;;;8.90;89.40;;;;;;5043698;28;20040;-63
2023/01/30 05:29:46;;;;;;;3.03;1.92;;;8.90;89.30;;;;;;5041992;28;20025;-63
2023/01/30 05:32:17;;;;;;;2.63;1.90;;;8.90;89.20;;;;;;5045342;28;20052;-63
2023/01/30 05:34:42;;;;;;;11.07;2.65;;;8.90;89.20;;;;;;5048881;28;20527;-63
2023/01/30 05:37:09;;;;;;;4.43;2.20;;;8.90;89.00;;;;;;5048509;28;20064;-62
2023/01/30 05:39:35;;;;;;;2.72;1.67;;;8.90;88.80;;;;;;5046634;28;20068;-62
2023/01/30 05:42:01;;;;;;;3.38;2.10;;;8.90;88.70;;;;;;5046061;28;20398;-66
2023/01/30 05:44:26;;;;;;;3.15;1.63;;;8.90;88.60;;;;;;5040365;28;20021;-67
2023/01/30 05:46:52;;;;;;;1.90;1.42;;;9.00;88.50;;;;;;5046276;28;20040;-63
2023/01/30 05:49:18;;;;;;;9.40;1.98;;;9.00;88.30;;;;;;5042604;28;20036;-62
2023/01/30 05:51:43;;;;;;;0.95;0.90;;;9.00;88.00;;;;;;5046318;28;20041;-62
2023/01/30 05:54:09;;;;;;;1.52;1.30;;;9.00;87.90;;;;;;5053062;28;20384;-62
2023/01/30 05:56:35;;;;;;;5.20;1.58;;;9.00;87.70;;;;;;5045358;28;20044;-62
2023/01/30 05:59:01;;;;;;;5.55;1.60;;;9.00;87.60;;;;;;5050764;28;20133;-63
2023/01/30 06:01:28;;;;;;;3.33;1.65;;;9.00;87.50;;;;;;5044411;28;20124;-63
2023/01/30 06:03:54;;;;;;;7.05;1.77;;;9.00;86.60;;;;;;5045384;28;20100;-67
2023/01/30 06:06:21;;;;;;;5.88;1.50;;;9.00;86.60;;;;;;5051197;28;20498;-67
2023/01/30 06:08:47;;;;;;;5.90;1.90;;;9.00;86.40;;;;;;5051209;28;20029;-67
2023/01/30 06:11:16;;;;;;;5.75;1.45;;;9.00;86.10;;;;;;5051453;28;20116;-68
2023/01/30 06:13:42;;;;;;;2.90;1.80;;;9.00;86.10;;;;;;5054645;28;20528;-66
2023/01/30 06:16:10;;;;;;;5.43;2.35;;;8.90;85.70;;;;;;5050236;28;20078;-67
2023/01/30 06:18:37;;;;;;;10.27;1.90;;;8.90;85.60;;;;;;5041939;28;20045;-67
2023/01/30 06:21:03;;;;;;;11.90;2.35;;;8.90;85.20;;;;;;5041411;28;20500;-63
2023/01/30 06:23:29;;;;;;;4.13;1.27;;;8.80;85.00;;;;;;5047560;28;20065;-67
2023/01/30 06:25:55;;;;;;;6.97;2.58;;;8.80;84.70;;;;;;5042373;28;20026;-67
2023/01/30 06:28:22;;;;;;;8.82;2.17;;;8.70;84.50;;;;;;5047035;28;20118;-67
2023/01/30 06:30:48;;;;;;;5.25;1.85;;;8.70;84.00;;;;;;5050354;28;20021;-67
2023/01/30 06:33:14;;;;;;;1.85;1.02;;;8.70;82.90;;;;;;5053945;28;20032;-67
2023/01/30 06:35:41;;;;;;;1.98;1.05;;;8.70;83.10;;;;;;5051434;28;20029;-62
2023/01/30 06:38:10;;;;;;;7.13;1.65;;;8.70;82.90;;;;;;5049776;28;20599;-67
2023/01/30 06:40:36;;;;;;;4.13;1.58;;;8.70;82.80;;;;;;5049919;28;20473;-62
2023/01/30 06:43:02;;;;;;;3.72;1.73;;;8.70;82.70;;;;;;5059330;28;20013;-63
2023/01/30 06:45:28;;;;;;;1.90;1.17;;;8.70;81.90;;;;;;5051568;28;20025;-62
2023/01/30 06:47:54;;;;;;;6.93;1.77;;;8.60;81.90;;;;;;5082326;28;20086;-65
2023/01/30 06:50:22;;;;;;;6.20;1.25;;;8.60;82.00;;;;;;5061597;28;20032;-66
2023/01/30 06:52:50;;;;;;;4.95;1.60;;;8.50;81.90;;;;;;5055014;28;20028;-67
2023/01/30 06:55:18;;;;;;;6.35;2.50;;;8.50;81.90;;;;;;5047968;28;20033;-66
2023/01/30 06:57:44;;;;;;;2.20;1.35;;;8.50;81.60;;;;;;5051445;28;20476;-64
2023/01/30 07:00:16;;;;;;;6.88;2.20;;;8.40;81.40;;;;;;5056541;28;20057;-61
2023/01/30 07:02:41;;;;;;;6.43;1.63;;;8.40;81.60;;;;;;5060103;28;20387;-62
2023/01/30 07:05:09;;;;;;;10.40;1.50;;;8.40;81.70;;;;;;5070304;28;20039;-63
2023/01/30 07:07:35;;;;;;;3.88;1.35;;;8.30;81.20;;;;;;5049446;28;20029;-62
2023/01/30 07:10:01;;;;;;;3.85;1.63;;;8.30;81.50;;;;;;5049179;28;20091;-62
2023/01/30 07:12:27;;;;;;;5.13;1.55;;;8.30;81.30;;;;;;5050918;28;20045;-63
2023/01/30 07:14:53;;;;;;;3.13;1.60;;;8.20;81.00;;;;;;5057966;28;20055;-64
2023/01/30 07:17:19;;;;;;;5.95;2.15;;;8.20;80.70;;;;;;5050461;28;20021;-64
2023/01/30 07:19:45;;;;;;;3.80;1.92;;;8.20;80.50;;;;;;5055146;28;20032;-61
2023/01/30 07:22:11;;;;;;;4.50;1.25;;;8.20;80.10;;;;;;5049421;28;20051;-62
2023/01/30 07:24:38;;;;;;;11.68;2.20;;;8.20;79.70;;;;;;5053229;28;20035;-63
2023/01/30 07:27:09;;;;;;;3.38;0.98;;;8.20;79.40;;;;;;5049830;28;20100;-63
2023/01/30 07:29:36;;;;;;;6.20;1.67;;;8.20;79.40;;;;;;5042292;28;20037;-63
2023/01/30 07:32:02;;;;;;;7.97;1.70;;;8.20;79.30;;;;;;5049604;28;20036;-68
2023/01/30 07:34:28;;;;;;;5.18;2.15;;;8.20;79.40;;;;;;5043550;28;20044;-67
2023/01/30 07:36:54;;;;;;;13.20;2.47;;;8.20;79.40;;;;;;5047222;28;20029;-68
2023/01/30 07:39:20;;;;;;;4.20;2.22;;;8.10;79.20;;;;;;5053500;28;20038;-68
2023/01/30 07:41:45;;;;;;;6.63;1.55;;;8.10;79.10;;;;;;5048469;28;20032;-67
2023/01/30 07:44:12;;;;;;;1.95;1.48;;;8.10;79.00;;;;;;5047458;28;21121;-67
2023/01/30 07:46:38;;;;;;;2.88;1.65;;;8.10;78.70;;;;;;5050205;28;20025;-68
2023/01/30 07:49:04;;;;;;;6.53;2.03;;;8.10;78.40;;;;;;5053479;28;20025;-68
2023/01/30 07:51:30;;;;;;;4.50;2.28;;;8.00;78.70;;;;;;5054529;28;20090;-67
2023/01/30 07:53:56;;;;;;;3.75;1.35;;;8.10;78.90;;;;;;5050628;28;20484;-63
2023/01/30 07:56:22;;;;;;;4.93;2.17;;;8.10;78.80;;;;;;5046837;28;20044;-62
2023/01/30 07:58:49;;;;;;;11.93;2.40;;;8.10;78.50;;;;;;5039242;28;20053;-62
2023/01/30 08:01:16;;;;;;;10.18;2.72;;;8.00;78.60;;;;;;5047577;28;20060;-62
2023/01/30 08:03:43;;;;;;;4.68;2.08;;;8.10;78.50;;;;;;5056508;28;20017;-66
2023/01/30 08:06:09;;;;;;;5.75;2.17;;;8.00;78.00;;;;;;5050398;28;20628;-61
2023/01/30 08:08:35;;;;;;;5.05;1.98;;;8.00;78.20;;;;;;5050669;28;20133;-66
2023/01/30 08:11:00;;;;;;;4.88;1.88;;;8.00;78.00;;;;;;5052078;28;20031;-62
2023/01/30 08:13:26;;;;;;;12.00;2.70;;;8.00;78.10;;;;;;5049847;28;20063;-62
2023/01/30 08:15:52;;;;;;;5.00;1.95;;;8.00;77.30;;;;;;5049035;28;20056;-61
2023/01/30 08:18:17;;;;;;;3.30;1.70;;;8.00;77.40;;;;;;5048847;28;20400;-67
2023/01/30 08:20:43;;;;;;;10.93;2.03;;;8.00;77.50;;;;;;5049717;28;20100;-62
2023/01/30 08:23:09;;;;;;;6.55;1.65;;;8.00;77.50;;;;;;5048986;28;20530;-63
2023/01/30 08:25:35;;;;;;;7.57;2.25;;;8.10;76.60;;;;;;5049570;28;20049;-66
2023/01/30 08:28:01;;;;;;;3.97;1.63;;;8.00;76.70;;;;;;5048033;28;20140;-66
2023/01/30 08:30:29;;;;;;;4.40;2.00;;;8.00;76.60;;;;;;5049540;28;20021;-66
2023/01/30 08:32:55;;;;;;;8.32;1.83;;;8.10;76.40;;;;;;5048965;28;20046;-66
2023/01/30 08:35:21;;;;;;;7.03;1.73;;;8.10;76.00;;;;;;5049050;28;20341;-66
2023/01/30 08:37:47;;;;;;;7.53;1.92;;;8.10;76.30;;;;;;5051737;28;20040;-62
2023/01/30 08:40:13;;;;;;;6.97;1.95;;;8.10;75.80;;;;;;5051457;28;20029;-66
2023/01/30 08:42:39;;;;;;;2.20;1.50;;;8.20;76.10;;;;;;5039466;28;20770;-66
2023/01/30 08:45:06;;;;;;;12.30;1.95;;;8.20;75.90;;;;;;5043537;28;20033;-66
2023/01/30 08:47:33;;;;;;;8.82;2.20;;;8.30;75.80;;;;;;5044010;28;20040;-66
2023/01/30 08:49:59;;;;;;;4.82;2.08;;;8.30;75.60;;;;;;5051747;28;20024;-66
2023/01/30 08:52:25;;;;;;;12.52;2.60;;;8.30;75.30;;;;;;5047242;28;20361;-66
2023/01/30 08:54:50;;;;;;;4.47;2.13;;;8.40;75.20;;;;;;5062006;28;20094;-66
2023/01/30 08:57:16;;;;;;;6.85;1.63;;;8.40;75.00;;;;;;5042533;28;20121;-66
2023/01/30 08:59:42;;;;;;;7.00;1.75;;;8.50;75.00;;;;;;5047827;28;20108;-62
2023/01/30 09:02:11;;;;;;;10.65;1.83;;;8.50;75.00;;;;;;5046820;28;20045;-62
2023/01/30 09:04:37;;;;;;;15.85;2.75;;;8.60;74.70;;;;;;5047594;28;20408;-66
2023/01/30 09:07:02;;;;;;;9.73;2.10;;;8.70;73.90;;;;;;5045636;28;20025;-62
2023/01/30 09:09:29;;;;;;;9.20;2.22;;;8.80;73.50;;;;;;5045250;28;20033;-62
2023/01/30 09:11:54;;;;;;;11.43;2.25;;;8.90;73.10;;;;;;5042762;28;20477;-66
2023/01/30 09:14:20;;;;;;;7.72;2.58;;;8.90;72.50;;;;;;5045227;28;20031;-66
2023/01/30 09:16:47;;;;;;;5.32;1.90;;;8.90;72.40;;;;;;5044439;28;20539;-66
2023/01/30 09:19:13;;;;;;;3.03;1.83;;;9.00;72.60;;;;;;5045115;28;20495;-66
2023/01/30 09:21:39;;;;;;;4.63;1.48;;;8.90;72.40;;;;;;5043034;28;20028;-66
2023/01/30 09:24:05;;;;;;;6.43;2.03;;;8.90;72.50;;;;;;5046719;28;20025;-66
2023/01/30 09:26:31;;;;;;;5.38;1.90;;;8.90;72.30;;;;;;5046800;28;20036;-65
2023/01/30 09:28:56;;;;;;;2.60;1.55;;;8.90;72.50;;;;;;5045507;28;20036;-61
2023/01/30 09:31:22;;;;;;;8.05;2.25;;;8.90;72.10;;;;;;5045005;28;20028;-62
2023/01/30 09:33:48;;;;;;;10.73;2.13;;;8.90;71.90;;;;;;5041262;28;20068;-63
2023/01/30 09:36:14;;;;;;;9.75;2.00;;;8.90;71.60;;;;;;5054573;28;20037;-62
2023/01/30 09:38:39;;;;;;;7.43;2.60;;;8.90;71.50;;;;;;5052273;28;20468;-63
2023/01/30 09:41:17;;;;;;;6.50;2.13;;;9.00;71.80;;;;;;5047492;28;20029;-62
2023/01/30 09:43:55;;;;;;;3.83;1.85;;;9.00;71.50;;;;;;5043387;28;20029;-70
2023/01/30 09:46:33;;;;;;;5.47;1.77;;;9.00;71.70;;;;;;5050437;28;20027;-70
2023/01/30 09:49:11;;;;;;;8.32;2.53;;;9.00;71.40;;;;;;5047538;28;20591;-70
2023/01/30 09:51:45;;;;;;;6.13;2.33;;;9.00;71.80;;;;;;5037039;28;20102;-65
2023/01/30 09:54:15;;;;;;;6.75;2.47;;;9.00;71.40;;;;;;5046964;28;20033;-65
2023/01/30 09:56:41;;;;;;;7.13;1.98;;;9.00;71.50;;;;;;5046627;28;20388;-65
2023/01/30 09:59:26;;;;;;;13.80;1.95;;;9.00;71.30;;;;;;5047077;28;20038;-66
2023/01/30 10:02:19;;;;;;;5.28;2.28;;;9.10;71.50;;;;;;5044354;28;20085;-62
2023/01/30 10:04:47;;;;;;;7.82;1.95;;;9.20;71.10;;;;;;5045875;28;20480;-62
2023/01/30 10:07:39;;;;;;;11.38;2.42;;;9.10;70.80;;;;;;5049406;28;20100;-62
2023/01/30 10:10:29;;;;;;;6.30;2.45;;;9.20;70.90;;;;;;5041236;28;20041;-61
2023/01/30 10:13:13;;;;;;;4.20;1.60;;;9.20;71.20;;;;;;5040035;28;20079;-62
2023/01/30 10:16:15;;;;;;;10.80;2.88;;;9.30;71.00;;;;;;5037624;28;20033;-62
2023/01/30 10:18:41;;;;;;;15.25;2.47;;;9.40;70.80;;;;;;5032658;28;20369;-63
2023/01/30 10:21:26;;;;;;;4.53;1.90;;;9.40;70.70;;;;;;5046423;28;20041;-62
2023/01/30 10:24:03;;;;;;;1.95;1.38;;;9.40;70.10;;;;;;5048119;28;20388;-62
2023/01/30 10:26:30;;;;;;;12.65;2.45;;;9.40;70.40;;;;;;5043176;28;20433;-65
2023/01/30 10:29:12;;;;;;;3.30;1.65;;;9.30;70.40;;;;;;5046165;28;20511;-66
2023/01/30 10:31:54;;;;;;;3.20;1.50;;;9.30;70.90;;;;;;5040757;28;20381;-66
2023/01/30 10:34:32;;;;;;;1.25;1.15;;;9.30;70.70;;;;;;5041392;28;20404;-62
2023/01/30 10:37:13;;;;;;;3.08;1.10;;;9.30;70.50;;;;;;5033568;28;20045;-65
2023/01/30 10:39:57;;;;;;;9.82;1.42;;;9.20;70.80;;;;;;5040405;28;20029;-61
2023/01/30 10:42:37;;;;;;;3.53;1.52;;;9.20;71.30;;;;;;5041980;28;20032;-61
2023/01/30 10:45:14;;;;;;;4.63;1.85;;;9.20;71.50;;;;;;5042347;28;20488;-61
2023/01/30 10:48:13;;;;;;;5.97;1.50;;;9.20;71.60;;;;;;5034708;28;20129;-63
2023/01/30 10:50:52;;;;;;;6.50;2.13;;;9.30;71.40;;;;;;5032522;28;20132;-62
2023/01/30 10:53:27;;;;;;;3.50;1.58;;;9.30;71.40;;;;;;5042574;28;20029;-62
2023/01/30 10:56:37;;;;;;;7.03;2.08;;;9.30;71.30;;;;;;5047780;28;20040;-62
2023/01/30 10:59:19;;;;;;;8.20;1.92;;;9.40;70.00;;;;;;5044520;28;20449;-62
2023/01/30 11:02:03;;;;;;;4.22;1.90;;;9.40;70.30;;;;;;5040527;28;20046;-61
2023/01/30 11:04:51;;;;;;;6.20;1.83;;;9.40;69.70;;;;;;5038604;28;20465;-62
2023/01/30 11:07:17;;;;;;;3.42;1.48;;;9.40;69.70;;;;;;5053577;28;20171;-62
2023/01/30 11:09:45;;;;;;;7.70;1.63;;;9.60;70.10;;;;;;5038581;28;20729;-62
2023/01/30 11:12:12;;;;;;;6.80;1.73;;;9.70;69.60;;;;;;5042612;28;20029;-61
2023/01/30 11:14:49;;;;;;;3.83;1.55;;;9.90;69.20;;;;;;5048536;28;20030;-62
2023/01/30 11:17:17;;;;;;;2.92;1.42;;;10.30;68.80;;;;;;5043956;28;20476;-62
2023/01/30 11:19:43;;;;;;;4.18;1.20;;;10.70;67.60;;;;;;5040607;28;20029;-62
2023/01/30 11:22:14;;;;;;;1.65;1.10;;;11.00;66.30;;;;;;5049708;28;20035;-62
2023/01/30 11:24:44;;;;;;;6.80;1.17;;;11.30;65.50;;;;;;5048762;28;20048;-63
2023/01/30 11:27:31;;;;;;;6.05;2.72;;;11.50;64.40;;;;;;5046804;28;20645;-63
2023/01/30 11:30:05;;;;;;;6.25;1.80;;;11.40;63.30;;;;;;5047133;28;20056;-62
2023/01/30 11:32:31;;;;;;;5.10;1.23;;;11.30;63.80;;;;;;5047685;28;20204;-62
2023/01/30 11:35:22;;;;;;;3.72;0.95;;;11.70;63.30;;;;;;5042781;28;20108;-62
2023/01/30 11:37:50;;;;;;;4.35;2.08;;;12.30;61.50;;;;;;5034247;28;20017;-61
2023/01/30 11:40:24;;;;;;;3.85;2.22;;;12.60;60.30;;;;;;5047698;28;20044;-62
2023/01/30 11:43:11;;;;;;;12.25;1.58;;;12.60;59.60;;;;;;5037589;28;20013;-64
2023/01/30 11:45:47;;;;;;;7.72;1.70;;;12.30;60.80;;;;;;5039689;28;20464;-65
2023/01/30 11:48:19;;;;;;;7.10;2.13;;;12.00;59.50;;;;;;5047784;28;20033;-65
2023/01/30 11:50:47;;;;;;;;;;;11.80;60.40;;;;;;5041893;28;20108;-66
2023/01/30 11:53:31;;;;;;;4.50;1.88;;;11.60;61.20;;;;;;5050731;28;19959;-63
2023/01/30 11:55:59;;;;;;;2.45;1.50;;;11.80;61.50;;;;;;5075450;28;20033;-66
2023/01/30 11:58:32;;;;;;;1.15;0.73;;;12.30;61.00;;;;;;5045671;28;20462;-62
2023/01/30 12:00:59;;;;;;;3.75;1.80;;;12.80;57.80;;;;;;5032395;28;20099;-62
2023/01/30 12:03:28;;;;;;;7.78;2.25;;;12.40;57.80;;;;;;5040895;28;20025;-65
2023/01/30 12:05:55;;;;;;;5.50;2.05;;;12.00;58.60;;;;;;5051009;28;20025;-62
2023/01/30 12:08:25;;;;;;;6.35;1.67;;;11.90;58.40;;;;;;5049188;28;20087;-66
2023/01/30 12:10:54;;;;;;;6.68;2.25;;;11.80;58.90;;;;;;5050065;28;20100;-65
2023/01/30 12:13:31;;;;;;;4.97;1.52;;;11.70;59.10;;;;;;5050446;28;20096;-62
2023/01/30 12:16:09;;;;;;;5.50;1.77;;;11.50;59.50;;;;;;5050887;28;20056;-66
2023/01/30 12:18:49;;;;;;;8.50;2.40;;;11.20;59.20;;;;;;5033395;28;20026;-62
2023/01/30 12:21:43;;;;;;;5.60;2.40;;;11.00;59.20;;;;;;5040091;28;20418;-62
2023/01/30 12:24:24;;;;;;;6.22;1.95;;;10.90;60.10;;;;;;5043918;28;20021;-62
2023/01/30 12:27:03;;;;;;;2.88;1.35;;;10.80;60.90;;;;;;5045949;28;20032;-62
2023/01/30 12:29:34;;;;;;;5.07;1.38;;;10.70;61.30;;;;;;5049691;28;20493;-66
2023/01/30 12:32:17;;;;;;;3.53;1.63;;;10.60;61.20;;;;;;5045949;28;20464;-66
2023/01/30 12:34:44;;;;;;;3.13;1.58;;;10.50;61.20;;;;;;5036495;28;20039;-66
2023/01/30 12:37:40;;;;;;;6.00;1.77;;;10.40;61.90;;;;;;5042088;28;20440;-66
2023/01/30 12:40:31;;;;;;;9.13;1.58;;;10.50;62.20;;;;;;5042915;28;20048;-66
2023/01/30 12:43:38;;;;;;;7.57;1.98;;;10.50;62.20;;;;;;5039433;28;20124;-66
2023/01/30 12:46:11;;;;;;;3.58;1.63;;;10.60;62.00;;;;;;5038568;28;20017;-62
2023/01/30 12:48:43;;;;;;;13.57;2.72;;;10.60;61.80;;;;;;5049316;28;20037;-63
2023/01/30 12:51:20;;;;;;;5.38;2.08;;;10.70;61.00;;;;;;5049916;28;20079;-62
2023/01/30 12:54:18;;;;;;;5.95;1.60;;;10.70;60.70;;;;;;5039413;28;20037;-62
2023/01/30 12:56:52;;;;;;;6.88;1.70;;;10.70;60.40;;;;;;5045713;28;20037;-62
2023/01/30 12:59:47;;;;;;;5.88;1.80;;;10.70;61.00;;;;;;5079914;28;20041;-66
2023/01/30 13:02:23;;;;;;;1.83;1.25;;;10.70;61.10;;;;;;5032974;28;20444;-66
2023/01/30 13:05:10;;;;;;;8.65;1.90;;;10.60;61.20;;;;;;5044785;28;20026;-66
2023/01/30 13:07:42;;;;;;;8.90;2.45;;;10.90;61.20;;;;;;5048209;28;20748;-66
2023/01/30 13:10:17;;;;;;;12.95;2.63;;;11.00;60.00;;;;;;5046596;28;20028;-66
2023/01/30 13:12:49;;;;;;;12.38;1.85;;;10.90;60.60;;;;;;5037816;28;20029;-66
2023/01/30 13:15:28;;;;;;;4.00;1.60;;;10.80;61.20;;;;;;5039116;28;20104;-66
2023/01/30 13:18:02;;;;;;;2.60;1.73;;;10.60;62.20;;;;;;5049741;28;20028;-62